Time;durP1;ratioP1;P1;durP2;ratioP2;P2;SDS_P1;SDS_P2;PMS_P1;PMS_P2;Temp;Humidity;BMP_temperature;BMP_pressure;BME280_temperature;BME280_humidity;BME280_pressure;Samples;Min_cycle;Max_cycle;Signal;HPM_P1;HPM_P2
2024/04/10 00:00:29;;;;;;;;;;;;;;;13.94;68.75;101359.63;4364596;27;19931;-68
2024/04/10 00:02:30;;;;;;;;;;;;;;;13.90;68.95;101355.56;4366101;27;19938;-68
2024/04/10 00:04:33;;;;;;;;;;;;;;;13.86;69.54;101351.56;4363916;27;19939;-68
2024/04/10 00:06:34;;;;;;;;;;;;;;;13.81;70.30;101352.13;4364704;27;19959;-68
2024/04/10 00:08:39;;;;;;;;;;;;;;;13.77;70.48;101358.09;4365224;27;20025;-68
2024/04/10 00:10:42;;;;;;;;;;;;;;;13.74;71.26;101347.59;4365946;27;20368;-68
2024/04/10 00:12:45;;;;;;;;;;;;;;;13.73;71.26;101343.19;4364193;27;19931;-68
2024/04/10 00:14:46;;;;;;;;;;;;;;;13.68;71.58;101347.31;4364909;27;20339;-68
2024/04/10 00:16:53;;;;;;;;;;;;;;;13.63;72.30;101344.28;4365018;27;19938;-68
2024/04/10 00:18:53;;;;;;;;;;;;;;;13.64;72.66;101345.16;4365843;27;20534;-68
2024/04/10 00:20:57;;;;;;;;;;;;;;;13.63;72.98;101343.44;4365455;27;19935;-68
2024/04/10 00:22:58;;;;;;;;;;;;;;;13.58;73.36;101348.59;4362864;27;19931;-68
2024/04/10 00:25:03;;;;;;;;;;;;;;;13.54;73.67;101350.78;4365570;27;19931;-68
2024/04/10 00:27:04;;;;;;;;;;;;;;;13.52;73.79;101364.53;4365265;27;19931;-68
2024/04/10 00:29:05;;;;;;;;;;;;;;;13.47;74.20;101353.41;4365386;27;19943;-68
2024/04/10 00:31:09;;;;;;;;;;;;;;;13.44;74.93;101351.03;4362509;27;20002;-68
2024/04/10 00:33:13;;;;;;;;;;;;;;;13.43;74.97;101332.22;4324299;27;19932;-68
2024/04/10 00:35:17;;;;;;;;;;;;;;;13.38;74.99;101331.94;4363204;27;20644;-68
2024/04/10 00:37:18;;;;;;;;;;;;;;;13.32;75.61;101333.47;4363856;27;20482;-68
2024/04/10 00:39:22;;;;;;;;;;;;;;;13.30;76.02;101335.53;4363416;27;20406;-68
2024/04/10 00:41:23;;;;;;;;;;;;;;;13.28;75.74;101340.28;4362355;27;19943;-68
2024/04/10 00:43:26;;;;;;;;;;;;;;;13.24;76.45;101345.22;4361545;27;19931;-68
2024/04/10 00:45:27;;;;;;;;;;;;;;;13.22;76.38;101351.88;4364351;27;19938;-68
2024/04/10 00:47:31;;;;;;;;;;;;;;;13.22;76.58;101360.84;4362613;27;19938;-68
2024/04/10 00:49:35;;;;;;;;;;;;;;;13.21;76.89;101361.84;4334746;27;19967;-68
2024/04/10 00:51:38;;;;;;;;;;;;;;;13.18;77.13;101375.75;4363804;27;19938;-68
2024/04/10 00:53:40;;;;;;;;;;;;;;;13.18;77.26;101381.19;4308850;27;19936;-68
2024/04/10 00:55:44;;;;;;;;;;;;;;;13.15;77.01;101379.69;4364326;27;19970;-68
2024/04/10 00:57:45;;;;;;;;;;;;;;;13.13;77.48;101387.19;4363124;27;19938;-68
2024/04/10 00:59:48;;;;;;;;;;;;;;;13.11;77.83;101388.38;4365614;27;19938;-68
2024/04/10 01:01:49;;;;;;;;;;;;;;;13.08;77.96;101400.41;4364517;27;19931;-68
2024/04/10 01:03:50;;;;;;;;;;;;;;;13.07;77.88;101400.59;4362419;27;19938;-68
2024/04/10 01:06:03;;;;;;;;;;;;;;;13.08;77.86;101383.28;4363848;27;19964;-68
2024/04/10 01:08:05;;;;;;;;;;;;;;;13.07;77.79;101381.59;4364997;27;19939;-68
2024/04/10 01:10:09;;;;;;;;;;;;;;;13.06;77.69;101385.34;4364629;27;20006;-68
2024/04/10 01:12:10;;;;;;;;;;;;;;;13.04;78.03;101406.34;4335482;27;20370;-68
2024/04/10 01:14:13;;;;;;;;;;;;;;;13.02;77.73;101408.41;4364491;27;19931;-68
2024/04/10 01:16:14;;;;;;;;;;;;;;;13.01;78.10;101415.72;4363613;27;19939;-68
2024/04/10 01:18:18;;;;;;;;;;;;;;;12.98;78.05;101414.19;4364870;27;19947;-68
2024/04/10 01:20:19;;;;;;;;;;;;;;;12.97;78.30;101414.38;4364452;27;19967;-68
2024/04/10 01:22:25;;;;;;;;;;;;;;;12.96;78.50;101415.38;4363917;27;20014;-68
2024/04/10 01:24:28;;;;;;;;;;;;;;;12.91;78.68;101415.91;4363754;27;19939;-68
2024/04/10 01:26:32;;;;;;;;;;;;;;;12.90;78.79;101432.34;4364558;27;20001;-68
2024/04/10 01:28:33;;;;;;;;;;;;;;;12.90;79.03;101437.75;4363558;27;19931;-68
2024/04/10 01:30:37;;;;;;;;;;;;;;;12.88;79.18;101443.38;4334475;27;20002;-68
2024/04/10 01:32:38;;;;;;;;;;;;;;;12.88;78.96;101456.09;4365172;27;19938;-68
2024/04/10 01:34:43;;;;;;;;;;;;;;;12.86;78.89;101444.56;4334060;27;20345;-68
2024/04/10 01:36:44;;;;;;;;;;;;;;;12.85;78.99;101432.03;4364061;27;20001;-68
2024/04/10 01:38:49;;;;;;;;;;;;;;;12.86;79.03;101434.56;4364563;27;19931;-68
2024/04/10 01:40:52;;;;;;;;;;;;;;;12.85;79.00;101442.88;4365467;27;20349;-68
2024/04/10 01:42:53;;;;;;;;;;;;;;;12.82;79.41;101449.50;4364350;27;19938;-69
2024/04/10 01:44:57;;;;;;;;;;;;;;;12.82;78.98;101445.94;4364760;27;20245;-68
2024/04/10 01:46:58;;;;;;;;;;;;;;;12.79;79.33;101445.28;4364504;27;19938;-68
2024/04/10 01:49:04;;;;;;;;;;;;;;;12.78;79.41;101434.59;4363733;27;19931;-68
2024/04/10 01:51:05;;;;;;;;;;;;;;;12.77;79.25;101432.91;4365131;27;19931;-68
2024/04/10 01:53:08;;;;;;;;;;;;;;;12.77;79.44;101420.22;4364579;27;19933;-68
2024/04/10 01:55:10;;;;;;;;;;;;;;;12.77;79.09;101425.63;4363860;27;19958;-68
2024/04/10 01:57:16;;;;;;;;;;;;;;;12.76;79.08;101428.53;4363121;27;19938;-68
2024/04/10 01:59:18;;;;;;;;;;;;;;;12.75;79.05;101440.38;4365049;27;20285;-68
2024/04/10 02:01:21;;;;;;;;;;;;;;;12.75;79.18;101443.09;4364807;27;20344;-68
2024/04/10 02:03:23;;;;;;;;;;;;;;;12.74;79.00;101452.22;4362612;27;19938;-68
2024/04/10 02:05:26;;;;;;;;;;;;;;;12.73;79.14;101448.69;4363083;27;19938;-68
2024/04/10 02:07:27;;;;;;;;;;;;;;;12.72;79.30;101452.41;4362734;27;20006;-67
2024/04/10 02:09:31;;;;;;;;;;;;;;;12.72;79.24;101454.28;4363839;27;19931;-68
2024/04/10 02:11:37;;;;;;;;;;;;;;;12.71;78.77;101445.31;4363059;27;19938;-68
2024/04/10 02:13:43;;;;;;;;;;;;;;;12.71;78.61;101441.72;4363430;27;19942;-67
2024/04/10 02:15:45;;;;;;;;;;;;;;;12.71;78.75;101445.31;4363945;27;19943;-68
2024/04/10 02:17:49;;;;;;;;;;;;;;;12.70;78.72;101450.91;4334905;27;20306;-68
2024/04/10 02:19:50;;;;;;;;;;;;;;;12.70;78.78;101453.63;4364055;27;19931;-68
2024/04/10 02:21:53;;;;;;;;;;;;;;;12.68;78.68;101450.22;4362860;27;19935;-68
2024/04/10 02:23:55;;;;;;;;;;;;;;;12.67;78.52;101456.66;4363268;27;19938;-68
2024/04/10 02:25:58;;;;;;;;;;;;;;;12.67;78.66;101454.78;4363474;27;19938;-68
2024/04/10 02:27:59;;;;;;;;;;;;;;;12.67;78.52;101453.97;4363183;27;19943;-68
2024/04/10 02:30:06;;;;;;;;;;;;;;;12.66;77.98;101455.81;4363794;27;20325;-68
2024/04/10 02:32:07;;;;;;;;;;;;;;;12.67;77.83;101451.25;4363048;27;19942;-68
2024/04/10 02:34:11;;;;;;;;;;;;;;;12.67;77.75;101456.66;4361669;27;19931;-68
2024/04/10 02:36:12;;;;;;;;;;;;;;;12.66;77.96;101463.09;4363388;27;19935;-68
2024/04/10 02:38:16;;;;;;;;;;;;;;;12.66;77.79;101468.50;4363690;27;19966;-68
2024/04/10 02:40:17;;;;;;;;;;;;;;;12.65;77.84;101474.94;4364485;27;19931;-69
2024/04/10 02:42:20;;;;;;;;;;;;;;;12.64;77.90;101475.97;4361699;27;20001;-68
2024/04/10 02:44:22;;;;;;;;;;;;;;;12.63;78.15;101480.53;4363386;27;19931;-68
2024/04/10 02:46:26;;;;;;;;;;;;;;;12.61;77.74;101485.28;4332976;27;19935;-68
2024/04/10 02:48:30;;;;;;;;;;;;;;;12.60;78.38;101483.59;4363629;27;19931;-68
2024/04/10 02:50:31;;;;;;;;;;;;;;;12.59;78.47;101493.59;4334728;27;20096;-68
2024/04/10 02:52:32;;;;;;;;;;;;;;;12.60;77.98;101494.44;4362939;27;19932;-68
2024/04/10 02:54:36;;;;;;;;;;;;;;;12.59;78.15;101493.59;4359309;27;20365;-68
2024/04/10 02:56:36;;;;;;;;;;;;;;;12.59;78.09;101496.31;4362181;27;20392;-68
2024/04/10 02:58:40;;;;;;;;;;;;;;;12.57;78.05;101492.06;4362818;27;19935;-68
2024/04/10 03:00:43;;;;;;;;;;;;;;;12.55;78.44;101492.22;4363499;27;19967;-68
2024/04/10 03:02:49;;;;;;;;;;;;;;;12.54;78.69;101503.25;4364716;27;19932;-68
2024/04/10 03:04:50;;;;;;;;;;;;;;;12.54;78.99;101508.66;4362546;27;20005;-68
2024/04/10 03:06:55;;;;;;;;;;;;;;;12.54;78.91;101523.06;4362632;27;19931;-68
2024/04/10 03:08:56;;;;;;;;;;;;;;;12.51;78.74;101519.88;4363899;27;20353;-68
2024/04/10 03:11:00;;;;;;;;;;;;;;;12.51;79.08;101522.59;4362685;27;19935;-68
2024/04/10 03:13:01;;;;;;;;;;;;;;;12.49;78.87;101530.88;4362144;27;20027;-68
2024/04/10 03:15:07;;;;;;;;;;;;;;;12.50;78.98;101537.13;4356313;27;19967;-68
2024/04/10 03:17:11;;;;;;;;;;;;;;;12.50;78.66;101539.84;4362372;27;20164;-68
2024/04/10 03:19:19;;;;;;;;;;;;;;;12.49;78.81;101546.28;4362460;27;19931;-68
2024/04/10 03:21:21;;;;;;;;;;;;;;;12.49;78.78;101543.56;4363138;27;19947;-68
2024/04/10 03:23:22;;;;;;;;;;;;;;;12.50;78.76;101553.38;4363310;27;19931;-68
2024/04/10 03:25:25;;;;;;;;;;;;;;;12.50;79.06;101556.09;4362931;27;19935;-68
2024/04/10 03:27:26;;;;;;;;;;;;;;;12.49;79.29;101557.09;4363589;27;20014;-68
2024/04/10 03:29:31;;;;;;;;;;;;;;;12.49;78.91;101557.97;4362788;27;19935;-68
2024/04/10 03:31:32;;;;;;;;;;;;;;;12.49;79.04;101555.25;4332313;27;19960;-69
2024/04/10 03:33:36;;;;;;;;;;;;;;;12.48;79.17;101558.97;4360365;27;19942;-69
2024/04/10 03:35:40;;;;;;;;;;;;;;;12.48;79.14;101564.41;4361889;27;19931;-68
2024/04/10 03:37:44;;;;;;;;;;;;;;;12.49;79.11;101565.22;4361142;27;20373;-68
2024/04/10 03:39:45;;;;;;;;;;;;;;;12.47;79.12;101578.94;4361817;27;19937;-67
2024/04/10 03:41:50;;;;;;;;;;;;;;;12.48;79.00;101572.53;4362443;27;20005;-68
2024/04/10 03:43:57;;;;;;;;;;;;;;;12.48;78.89;101567.09;4362920;27;19942;-68
2024/04/10 03:45:59;;;;;;;;;;;;;;;12.47;78.91;101573.53;4363290;27;19931;-68
2024/04/10 03:48:05;;;;;;;;;;;;;;;12.47;78.98;101578.13;4362430;27;19935;-68
2024/04/10 03:50:07;;;;;;;;;;;;;;;12.44;79.17;101577.44;4362967;27;20374;-68
2024/04/10 03:52:16;;;;;;;;;;;;;;;12.44;79.14;101592.84;4361189;27;19946;-68
2024/04/10 03:54:17;;;;;;;;;;;;;;;12.42;79.15;101598.41;4362377;27;19939;-68
2024/04/10 03:56:20;;;;;;;;;;;;;;;12.38;79.19;101593.50;4360983;27;19931;-68
2024/04/10 03:58:22;;;;;;;;;;;;;;;12.41;79.06;101601.28;4363048;27;20372;-68
2024/04/10 04:00:26;;;;;;;;;;;;;;;12.40;79.42;101613.16;4365612;27;19952;-68
2024/04/10 04:02:27;;;;;;;;;;;;;;;12.39;79.64;101612.31;4365943;27;20281;-68
2024/04/10 04:04:31;;;;;;;;;;;;;;;12.39;79.76;101614.19;4363206;27;19931;-68
2024/04/10 04:06:31;;;;;;;;;;;;;;;12.38;79.67;101618.75;4365182;27;19938;-68
2024/04/10 04:08:38;;;;;;;;;;;;;;;12.37;79.91;101616.22;4365297;27;20369;-68
2024/04/10 04:10:40;;;;;;;;;;;;;;;12.37;79.86;101613.50;4323858;27;19938;-68
2024/04/10 04:12:43;;;;;;;;;;;;;;;12.35;79.84;101621.78;4363677;27;20791;-68
2024/04/10 04:14:45;;;;;;;;;;;;;;;12.34;79.84;101617.38;4364019;27;20797;-68
2024/04/10 04:16:49;;;;;;;;;;;;;;;12.33;80.00;101623.81;4364273;27;19931;-68
2024/04/10 04:18:52;;;;;;;;;;;;;;;12.34;79.73;101630.09;4365570;27;19931;-68
2024/04/10 04:20:56;;;;;;;;;;;;;;;12.33;79.65;101634.63;4365515;27;19966;-68
2024/04/10 04:22:57;;;;;;;;;;;;;;;12.28;79.72;101641.59;4365916;27;19931;-68
2024/04/10 04:25:05;;;;;;;;;;;;;;;12.32;79.79;101657.34;4365172;27;20385;-68
2024/04/10 04:27:08;;;;;;;;;;;;;;;12.32;79.90;101651.06;4364273;27;19931;-68
2024/04/10 04:29:11;;;;;;;;;;;;;;;12.31;79.91;101650.22;4365243;27;20001;-68
2024/04/10 04:31:14;;;;;;;;;;;;;;;12.29;80.08;101651.38;4364935;27;19963;-68
2024/04/10 04:33:18;;;;;;;;;;;;;;;12.27;79.98;101651.56;4365217;27;19943;-67
2024/04/10 04:35:20;;;;;;;;;;;;;;;12.28;80.19;101658.69;4363045;27;19938;-68
2024/04/10 04:37:23;;;;;;;;;;;;;;;12.25;80.38;101667.97;4365489;27;19931;-68
2024/04/10 04:39:24;;;;;;;;;;;;;;;12.24;80.51;101677.13;4364675;27;20377;-67
2024/04/10 04:41:31;;;;;;;;;;;;;;;12.25;80.55;101691.50;4364405;27;19982;-67
2024/04/10 04:43:31;;;;;;;;;;;;;;;12.26;80.26;101690.50;4364554;27;20301;-68
2024/04/10 04:45:35;;;;;;;;;;;;;;;12.26;80.12;101698.63;4365031;27;19938;-68
2024/04/10 04:47:36;;;;;;;;;;;;;;;12.26;80.01;101706.75;4364216;27;19931;-67
2024/04/10 04:49:40;;;;;;;;;;;;;;;12.23;80.18;101710.63;4364942;27;19931;-69
2024/04/10 04:51:42;;;;;;;;;;;;;;;12.22;80.28;101714.34;4336005;27;19978;-75
2024/04/10 04:53:46;;;;;;;;;;;;;;;12.24;80.27;101722.31;4362886;27;19982;-68
2024/04/10 04:55:46;;;;;;;;;;;;;;;12.22;79.72;101725.19;4364033;27;19931;-68
2024/04/10 04:57:53;;;;;;;;;;;;;;;12.21;79.40;101728.91;4363185;27;19939;-68
2024/04/10 04:59:54;;;;;;;;;;;;;;;12.20;79.74;101726.38;4355210;27;19939;-68
2024/04/10 05:01:57;;;;;;;;;;;;;;;12.19;79.54;101739.03;4356658;27;20337;-68
2024/04/10 05:06:19;;;;;;;;;;;;;;;12.20;79.07;101748.03;4358026;27;19938;-68
2024/04/10 05:08:23;;;;;;;;;;;;;;;12.20;79.22;101740.75;4357876;27;20362;-68
2024/04/10 05:10:24;;;;;;;;;;;;;;;12.19;78.80;101747.16;4326712;27;19939;-69
2024/04/10 05:12:28;;;;;;;;;;;;;;;12.19;78.80;101749.03;4360963;27;19938;-68
2024/04/10 05:14:31;;;;;;;;;;;;;;;12.19;78.56;101755.28;4328132;27;19931;-67
2024/04/10 05:16:35;;;;;;;;;;;;;;;12.20;78.39;101754.28;4363236;27;19942;-68
2024/04/10 05:18:36;;;;;;;;;;;;;;;12.20;78.10;101754.28;4353367;27;20067;-67
2024/04/10 05:20:40;;;;;;;;;;;;;;;12.19;78.38;101747.16;4363913;27;19932;-68
2024/04/10 05:22:41;;;;;;;;;;;;;;;12.19;78.14;101749.03;4331045;27;19943;-68
2024/04/10 05:24:45;;;;;;;;;;;;;;;12.19;77.93;101757.16;4359282;27;19982;-68
2024/04/10 05:26:46;;;;;;;;;;;;;;;12.19;77.97;101758.00;4366189;27;20270;-68
2024/04/10 05:28:49;;;;;;;;;;;;;;;12.21;77.72;101760.56;4366491;27;20001;-68
2024/04/10 05:31:00;;;;;;;;;;;;;;;12.20;77.35;101759.72;4365315;27;19931;-68
2024/04/10 05:33:04;;;;;;;;;;;;;;;12.21;77.10;101771.38;4365986;27;20262;-68
2024/04/10 05:35:06;;;;;;;;;;;;;;;12.21;76.75;101774.97;4365313;27;19930;-68
2024/04/10 05:37:10;;;;;;;;;;;;;;;12.21;76.48;101777.66;4365407;27;20374;-68
2024/04/10 05:39:18;;;;;;;;;;;;;;;12.22;75.17;101779.34;4364660;27;19938;-68
2024/04/10 05:41:22;;;;;;;;;;;;;;;12.23;74.23;101781.06;4336509;27;19936;-67
2024/04/10 05:43:23;;;;;;;;;;;;;;;12.26;73.36;101788.00;4364795;27;19930;-68
2024/04/10 05:45:27;;;;;;;;;;;;;;;12.26;72.78;101794.28;4364936;27;19931;-68
2024/04/10 05:47:30;;;;;;;;;;;;;;;12.28;72.37;101788.69;4365472;27;19939;-68
2024/04/10 05:49:34;;;;;;;;;;;;;;;12.31;71.86;101803.78;4365412;27;20388;-67
2024/04/10 05:51:35;;;;;;;;;;;;;;;12.32;70.60;101794.63;4364895;27;20285;-67
2024/04/10 05:53:40;;;;;;;;;;;;;;;12.34;70.65;101798.03;4365094;27;19931;-68
2024/04/10 05:55:41;;;;;;;;;;;;;;;12.35;70.60;101788.88;4335242;27;19936;-67
2024/04/10 05:57:45;;;;;;;;;;;;;;;12.37;70.79;101798.56;4364986;27;20326;-67
2024/04/10 05:59:46;;;;;;;;;;;;;;;12.37;70.03;101795.00;4365724;27;19931;-68
2024/04/10 06:01:49;;;;;;;;;;;;;;;12.39;70.00;101799.22;4362538;27;20416;-68
2024/04/10 06:03:53;;;;;;;;;;;;;;;12.40;70.05;101802.81;4364549;27;19931;-68
2024/04/10 06:05:58;;;;;;;;;;;;;;;12.41;70.47;101810.78;4364127;27;20011;-68
2024/04/10 06:07:59;;;;;;;;;;;;;;;12.44;69.79;101815.00;4365120;27;19931;-68
2024/04/10 06:10:04;;;;;;;;;;;;;;;12.46;69.91;101821.13;4365005;27;19931;-68
2024/04/10 06:12:05;;;;;;;;;;;;;;;12.46;69.59;101818.41;4336563;27;19940;-67
2024/04/10 06:14:09;;;;;;;;;;;;;;;12.48;69.25;101819.09;4364707;27;19933;-67
2024/04/10 06:16:10;;;;;;;;;;;;;;;12.51;69.13;101818.75;4365159;27;19943;-67
2024/04/10 06:18:14;;;;;;;;;;;;;;;12.53;68.66;101821.31;4334082;27;19931;-67
2024/04/10 06:22:37;;;;;;;;;;;;;;;12.58;68.06;101827.09;2364204;21;19943;-69
2024/04/10 06:24:38;;;;;;;;;;;;;;;12.59;67.16;101805.25;4385608;26;20271;-69
2024/04/10 06:26:41;;;;;;;;;;;;;;;12.61;66.90;101813.22;4387348;26;20004;-69
2024/04/10 06:28:42;;;;;;;;;;;;;;;12.62;66.76;101817.63;4385566;26;20130;-69
2024/04/10 06:30:46;;;;;;;;;;;;;;;12.64;66.30;101821.00;4388137;27;20384;-69
2024/04/10 06:32:47;;;;;;;;;;;;;;;12.66;65.37;101827.09;4370668;26;20291;-68
2024/04/10 06:34:51;;;;;;;;;;;;;;;12.67;64.83;101831.53;4363381;27;19931;-68
2024/04/10 06:36:51;;;;;;;;;;;;;;;12.68;64.29;101830.53;4363836;27;20376;-69
2024/04/10 06:38:58;;;;;;;;;;;;;;;12.70;63.67;101841.19;4363428;27;19931;-69
2024/04/10 06:42:43;;;;;;;;;;;;;;;12.72;63.46;101844.59;4644491;25;19938;-67
2024/04/10 06:44:45;;;;;;;;;;;;;;;12.73;63.70;101846.28;4633072;25;19962;-67
2024/04/10 06:46:49;;;;;;;;;;;;;;;12.73;63.72;101847.13;4598108;25;19934;-67
2024/04/10 14:45:25;;;;;;;;;;;;;;;14.89;49.18;102322.78;4410671;21;19930;-66
2024/04/10 14:47:26;;;;;;;;;;;;;;;14.89;48.79;102336.41;4414588;26;19937;-66
2024/04/10 14:49:30;;;;;;;;;;;;;;;14.87;48.88;102333.84;4419438;26;19941;-66
2024/04/10 14:51:31;;;;;;;;;;;;;;;14.88;49.56;102329.28;4661713;21;20372;-68
2024/04/10 14:53:35;;;;;;;;;;;;;;;14.86;49.41;102326.72;4591564;21;19934;-69
2024/04/10 14:55:37;;;;;;;;;;;;;;;14.87;49.56;102331.13;4370362;27;19946;-68
2024/04/10 14:57:41;;;;;;;;;;;;;;;14.87;49.35;102346.59;4373710;27;19938;-69
2024/04/10 14:59:42;;;;;;;;;;;;;;;14.87;49.20;102330.28;4376187;27;19943;-69
2024/04/10 15:01:48;;;;;;;;;;;;;;;14.87;49.20;102331.13;4376956;27;20351;-69
2024/04/10 15:03:49;;;;;;;;;;;;;;;14.88;49.73;102337.44;4365712;27;20402;-69
2024/04/10 15:05:52;;;;;;;;;;;;;;;14.88;49.83;102337.44;4363733;27;19938;-68
2024/04/10 15:07:53;;;;;;;;;;;;;;;14.88;48.84;102337.44;4364954;27;20375;-69
2024/04/10 15:09:57;;;;;;;;;;;;;;;14.88;48.81;102348.31;4365668;27;19939;-68
2024/04/10 15:11:58;;;;;;;;;;;;;;;14.87;48.51;102344.72;4362186;27;19931;-68
2024/04/10 15:14:01;;;;;;;;;;;;;;;14.87;48.33;102347.44;4364067;27;20373;-68
2024/04/10 15:16:03;;;;;;;;;;;;;;;14.86;48.42;102353.06;4335824;27;19932;-68
2024/04/10 15:18:09;;;;;;;;;;;;;;;14.87;49.09;102357.50;4335650;27;19944;-68
2024/04/10 15:20:12;;;;;;;;;;;;;;;14.85;48.93;102359.53;4365877;27;19937;-68
2024/04/10 15:22:16;;;;;;;;;;;;;;;14.86;49.12;102359.38;4365478;27;19938;-68
2024/04/10 15:24:17;;;;;;;;;;;;;;;14.86;48.99;102377.53;4362468;27;20030;-68
2024/04/10 15:26:20;;;;;;;;;;;;;;;14.86;49.21;102367.53;4359491;27;19931;-68
2024/04/10 15:28:27;;;;;;;;;;;;;;;14.86;49.27;102374.81;4364910;27;19932;-68
2024/04/10 15:30:31;;;;;;;;;;;;;;;14.85;49.19;102379.41;4364919;27;20002;-69
2024/04/10 15:32:32;;;;;;;;;;;;;;;14.86;49.42;102372.09;4355658;27;20023;-69
2024/04/10 15:34:45;;;;;;;;;;;;;;;14.85;49.49;102384.84;4363157;27;19963;-68
2024/04/10 15:36:46;;;;;;;;;;;;;;;14.85;49.42;102378.56;4363009;27;19938;-68
2024/04/10 15:38:52;;;;;;;;;;;;;;;14.85;49.49;102381.28;4361802;27;20258;-68
2024/04/10 15:40:53;;;;;;;;;;;;;;;14.85;49.87;102384.84;4362904;27;19943;-68
2024/04/10 15:42:59;;;;;;;;;;;;;;;14.85;49.85;102378.56;4361238;27;19931;-68
2024/04/10 15:45:02;;;;;;;;;;;;;;;14.84;49.88;102380.41;4360042;27;19946;-67
2024/04/10 15:47:06;;;;;;;;;;;;;;;14.86;50.19;102382.97;4329725;27;19951;-68
2024/04/10 15:49:10;;;;;;;;;;;;;;;14.86;50.35;102375.69;4335253;27;20381;-67
2024/04/10 15:51:19;;;;;;;;;;;;;;;14.86;50.30;102375.69;4363459;27;19938;-66
2024/04/10 15:53:21;;;;;;;;;;;;;;;14.87;50.55;102376.53;4363228;27;19947;-67
2024/04/10 15:55:27;;;;;;;;;;;;;;;14.88;50.70;102368.19;4362613;27;20348;-67
2024/04/10 15:57:43;;;;;;;;;;;;;;;14.90;50.91;102381.63;4365239;27;19935;-68
2024/04/10 15:59:50;;;;;;;;;;;;;;;14.90;50.92;102376.19;4361835;27;20405;-68
2024/04/10 16:01:51;;;;;;;;;;;;;;;14.92;51.13;102380.47;4363530;27;19931;-68
2024/04/10 16:03:55;;;;;;;;;;;;;;;14.94;51.13;102380.31;4327225;27;19965;-69
2024/04/10 16:05:56;;;;;;;;;;;;;;;14.95;50.76;102382.84;4364531;27;20468;-68
2024/04/10 16:08:04;;;;;;;;;;;;;;;14.93;50.54;102384.88;4364087;27;19931;-68
2024/04/10 16:10:07;;;;;;;;;;;;;;;14.94;50.44;102380.31;4364566;27;20614;-68
2024/04/10 16:12:11;;;;;;;;;;;;;;;14.93;50.54;102384.88;4363003;27;20001;-69
2024/04/10 16:14:15;;;;;;;;;;;;;;;14.93;50.27;102387.59;4362494;27;19967;-68
2024/04/10 16:16:21;;;;;;;;;;;;;;;14.94;50.24;102383.03;4362620;27;19931;-68
2024/04/10 16:18:23;;;;;;;;;;;;;;;14.93;49.86;102390.31;4359948;27;20689;-68
2024/04/10 16:20:30;;;;;;;;;;;;;;;14.89;49.82;102386.25;4326734;27;19957;-69
2024/04/10 16:22:31;;;;;;;;;;;;;;;14.93;49.84;102393.03;4327100;27;19932;-67
2024/04/10 16:24:38;;;;;;;;;;;;;;;14.92;49.09;102387.75;4363824;27;20392;-68
2024/04/10 16:26:41;;;;;;;;;;;;;;;14.91;49.42;102386.91;4361258;27;20455;-68
2024/04/10 16:28:45;;;;;;;;;;;;;;;14.92;49.61;102401.34;4362936;27;19931;-69
2024/04/10 16:30:49;;;;;;;;;;;;;;;14.91;49.97;102397.78;4363728;27;20023;-68
2024/04/10 16:32:55;;;;;;;;;;;;;;;14.91;49.59;102408.69;4364131;27;19934;-68
2024/04/10 16:34:59;;;;;;;;;;;;;;;14.91;49.54;102408.69;4364354;27;19931;-67
2024/04/10 16:37:09;;;;;;;;;;;;;;;14.91;50.00;102402.41;4363292;27;19956;-68
2024/04/10 16:39:10;;;;;;;;;;;;;;;14.91;50.18;102414.13;4359788;27;19931;-69
2024/04/10 16:41:16;;;;;;;;;;;;;;;14.92;50.17;102413.13;4333091;27;19932;-68
2024/04/10 16:43:17;;;;;;;;;;;;;;;14.92;50.29;102414.97;4364020;27;19931;-68
2024/04/10 16:45:23;;;;;;;;;;;;;;;14.93;50.25;102419.41;4323397;27;19932;-68
2024/04/10 16:47:29;;;;;;;;;;;;;;;14.92;49.69;102421.28;4361802;27;19931;-67
2024/04/10 16:49:35;;;;;;;;;;;;;;;14.92;49.43;102415.84;4362905;27;19943;-67
2024/04/10 16:51:38;;;;;;;;;;;;;;;14.93;49.59;102416.69;4364790;27;19939;-68
2024/04/10 16:53:43;;;;;;;;;;;;;;;14.92;49.12;102412.25;4362240;27;20365;-68
2024/04/10 16:55:46;;;;;;;;;;;;;;;14.91;49.29;102416.00;4332856;27;20392;-68
2024/04/10 16:57:58;;;;;;;;;;;;;;;14.91;49.18;102418.72;4360571;27;20356;-69
2024/04/10 17:00:03;;;;;;;;;;;;;;;14.89;49.38;102418.88;4362325;27;19946;-68
2024/04/10 17:02:09;;;;;;;;;;;;;;;14.90;49.09;102415.13;4361896;27;19931;-68
2024/04/10 17:04:11;;;;;;;;;;;;;;;14.89;49.28;102424.31;4361051;27;19931;-68
2024/04/10 17:06:17;;;;;;;;;;;;;;;14.89;49.37;102426.16;4361837;27;20032;-68
2024/04/10 17:08:18;;;;;;;;;;;;;;;14.88;49.66;102432.66;4362137;27;19992;-67
2024/04/10 17:10:23;;;;;;;;;;;;;;;14.87;49.83;102430.94;4363208;27;20665;-67
2024/04/10 17:12:24;;;;;;;;;;;;;;;14.87;50.06;102430.94;4359899;27;20445;-69
2024/04/10 17:14:34;;;;;;;;;;;;;;;14.86;50.10;102440.09;4355301;27;19931;-68
2024/04/10 17:16:35;;;;;;;;;;;;;;;14.84;50.26;102445.69;4361546;27;19930;-67
2024/04/10 17:23:27;;;;;;;;;;;;;;;14.80;50.35;102443.50;4332501;27;19939;-69
2024/04/10 17:25:33;;;;;;;;;;;;;;;14.78;50.63;102443.66;4345972;27;20534;-68
2024/04/10 17:27:35;;;;;;;;;;;;;;;14.76;50.86;102442.97;4332669;27;19938;-67
2024/04/10 17:29:42;;;;;;;;;;;;;;;14.76;50.75;102453.84;4362772;27;19959;-68
2024/04/10 17:31:47;;;;;;;;;;;;;;;14.73;50.92;102438.72;4360642;27;20399;-67
2024/04/10 17:33:53;;;;;;;;;;;;;;;14.74;51.28;102454.00;4362846;27;19938;-67
2024/04/10 17:35:58;;;;;;;;;;;;;;;14.72;51.28;102447.03;4363504;27;20361;-68
2024/04/10 17:37:59;;;;;;;;;;;;;;;14.71;51.61;102450.75;4364310;27;20000;-67
2024/04/10 17:42:19;;;;;;;;;;;;;;;14.69;51.03;102458.25;4353927;27;20023;-68
2024/04/10 17:44:23;;;;;;;;;;;;;;;14.67;51.01;102461.13;4363365;27;20368;-67
2024/04/10 17:46:32;;;;;;;;;;;;;;;14.67;50.96;102461.13;4362983;27;19931;-68
2024/04/10 17:48:34;;;;;;;;;;;;;;;14.66;51.16;102473.00;4362777;27;19941;-68
2024/04/10 17:50:38;;;;;;;;;;;;;;;14.66;51.17;102467.56;4361218;27;19931;-68
2024/04/10 17:52:42;;;;;;;;;;;;;;;14.64;51.57;102466.00;4363211;27;20002;-68
2024/04/10 17:54:46;;;;;;;;;;;;;;;14.63;51.69;102470.59;4324664;27;20358;-69
2024/04/10 17:56:50;;;;;;;;;;;;;;;14.60;52.00;102476.38;4362302;27;19942;-68
2024/04/10 17:58:54;;;;;;;;;;;;;;;14.60;51.82;102476.38;4362509;27;19931;-69
2024/04/10 18:01:02;;;;;;;;;;;;;;;14.57;51.73;102485.66;4363986;27;20447;-68
2024/04/10 18:03:08;;;;;;;;;;;;;;;14.55;52.25;102479.53;4332490;27;19931;-68
2024/04/10 18:05:14;;;;;;;;;;;;;;;14.53;52.22;102488.84;4363276;27;19946;-68
2024/04/10 18:07:16;;;;;;;;;;;;;;;14.50;52.64;102491.88;4364218;27;19931;-68
2024/04/10 18:09:25;;;;;;;;;;;;;;;14.46;52.71;102491.38;4363302;27;20028;-68
2024/04/10 18:11:26;;;;;;;;;;;;;;;14.42;53.16;102484.56;4364140;27;19931;-68
2024/04/10 18:13:27;;;;;;;;;;;;;;;14.39;53.45;102490.31;4364569;27;19942;-68
2024/04/10 18:15:31;;;;;;;;;;;;;;;14.36;53.73;102496.91;4363212;27;19931;-68
2024/04/10 18:17:35;;;;;;;;;;;;;;;14.33;54.20;102501.81;4361035;27;19931;-68
2024/04/10 18:19:44;;;;;;;;;;;;;;;14.29;54.48;102500.44;4362734;27;20431;-67
2024/04/10 18:21:46;;;;;;;;;;;;;;;14.26;54.81;102508.91;4362909;27;20378;-68
2024/04/10 18:23:51;;;;;;;;;;;;;;;14.21;55.06;102506.66;4354074;27;20315;-68
2024/04/10 18:25:58;;;;;;;;;;;;;;;14.18;55.01;102509.69;4362373;27;20232;-67
2024/04/10 18:28:13;;;;;;;;;;;;;;;14.14;55.29;102509.16;4361667;27;19935;-69
2024/04/10 18:30:14;;;;;;;;;;;;;;;14.10;55.44;102513.19;4361964;27;19931;-69
2024/04/10 18:32:21;;;;;;;;;;;;;;;14.06;55.93;102514.53;4361152;27;19935;-68
2024/04/10 18:34:25;;;;;;;;;;;;;;;14.03;56.04;102520.28;4361331;27;19931;-68
2024/04/10 18:36:31;;;;;;;;;;;;;;;13.99;56.46;102517.00;4359673;27;19938;-68
2024/04/10 18:38:32;;;;;;;;;;;;;;;13.97;56.86;102523.63;4360914;27;20511;-67
2024/04/10 18:40:37;;;;;;;;;;;;;;;13.94;57.32;102524.75;4363216;27;19955;-68
2024/04/10 18:42:41;;;;;;;;;;;;;;;13.91;57.82;102526.94;4362198;27;19943;-68